Time;durP1;ratioP1;P1;durP2;ratioP2;P2;SDS_P1;SDS_P2;PMS_P1;PMS_P2;Temp;Humidity;BMP_temperature;BMP_pressure;BME280_temperature;BME280_humidity;BME280_pressure;Samples;Min_cycle;Max_cycle;Signal;HPM_P1;HPM_P2
2021/04/08 00:00:55;;;;;;;10.13;2.80;;;2.50;82.80;;;;;;5072652;28;20507;-71
2021/04/08 00:03:21;;;;;;;12.97;3.07;;;2.50;81.90;;;;;;5054432;28;20202;-71
2021/04/08 00:05:46;;;;;;;7.30;2.93;;;2.50;82.40;;;;;;5072691;28;20229;-70
2021/04/08 00:08:12;;;;;;;8.50;2.73;;;2.50;83.10;;;;;;5072598;28;20170;-69
2021/04/08 00:10:38;;;;;;;8.27;3.27;;;2.40;82.50;;;;;;5072550;28;20197;-71
2021/04/08 00:13:03;;;;;;;11.43;2.57;;;2.40;82.90;;;;;;5072276;28;20547;-69
2021/04/08 00:15:30;;;;;;;9.17;3.37;;;2.30;83.50;;;;;;5072216;28;20921;-70
2021/04/08 00:17:55;;;;;;;8.63;2.95;;;2.40;82.90;;;;;;5072509;28;20427;-70
2021/04/08 00:20:22;;;;;;;6.50;3.27;;;2.30;83.80;;;;;;5072473;28;20182;-70
2021/04/08 00:22:48;;;;;;;6.05;3.20;;;2.40;83.00;;;;;;5072184;28;20217;-70
2021/04/08 00:25:15;;;;;;;8.73;3.13;;;2.40;82.70;;;;;;5071953;28;20556;-70
2021/04/08 00:27:43;;;;;;;9.27;2.97;;;2.40;82.30;;;;;;5072671;28;20162;-69
2021/04/08 00:30:10;;;;;;;4.25;2.63;;;2.30;82.80;;;;;;5062812;28;20178;-70
2021/04/08 00:32:36;;;;;;;5.68;2.72;;;2.30;83.40;;;;;;5052013;28;20268;-70
2021/04/08 00:35:02;;;;;;;8.87;3.40;;;2.40;84.00;;;;;;5064204;28;20190;-70
2021/04/08 00:37:27;;;;;;;15.93;2.93;;;2.40;84.50;;;;;;5072625;28;20405;-70
2021/04/08 00:39:53;;;;;;;6.23;3.00;;;2.40;83.90;;;;;;5072236;28;20171;-69
2021/04/08 00:42:19;;;;;;;8.02;3.83;;;2.40;84.30;;;;;;5072089;28;20456;-70
2021/04/08 00:44:44;;;;;;;6.27;3.80;;;2.40;83.30;;;;;;5071799;28;20192;-70
2021/04/08 00:47:10;;;;;;;9.23;3.67;;;2.40;83.50;;;;;;5071896;28;20595;-69
2021/04/08 00:49:36;;;;;;;17.27;3.97;;;2.30;84.30;;;;;;5072034;28;20253;-69
2021/04/08 00:52:01;;;;;;;7.10;2.83;;;2.30;85.30;;;;;;5071772;28;20198;-69
2021/04/08 00:54:27;;;;;;;9.27;3.57;;;2.30;86.00;;;;;;5071385;28;20182;-69
2021/04/08 00:56:53;;;;;;;11.47;4.30;;;2.20;85.50;;;;;;5071823;28;20178;-69
2021/04/08 00:59:19;;;;;;;9.70;4.00;;;2.20;86.00;;;;;;5071930;28;20189;-70
2021/04/08 01:01:45;;;;;;;8.95;3.67;;;2.20;87.00;;;;;;5071821;28;20464;-70
2021/04/08 01:04:10;;;;;;;6.57;3.67;;;2.10;87.90;;;;;;5071748;28;20178;-69
2021/04/08 01:06:36;;;;;;;18.03;5.37;;;2.10;88.70;;;;;;5071466;28;20186;-70
2021/04/08 01:09:04;;;;;;;11.33;4.23;;;2.00;89.40;;;;;;5071507;28;20181;-70
2021/04/08 01:11:30;;;;;;;16.98;4.50;;;2.10;90.40;;;;;;5071246;28;20206;-70
2021/04/08 01:13:56;;;;;;;18.23;4.00;;;2.10;89.70;;;;;;5071728;28;20185;-69
2021/04/08 01:16:32;;;;;;;11.00;3.97;;;2.20;89.20;;;;;;5053761;28;20639;-70
2021/04/08 01:19:26;;;;;;;9.77;4.57;;;2.20;88.10;;;;;;5053851;28;20711;-70
2021/04/08 01:22:45;;;;;;;15.50;4.78;;;2.20;87.00;;;;;;5028347;28;20267;-69
2021/04/08 01:25:35;;;;;;;8.35;4.30;;;2.10;87.90;;;;;;5067301;28;20202;-69
2021/04/08 01:28:14;;;;;;;13.73;4.20;;;2.20;88.30;;;;;;5071552;28;20236;-70
2021/04/08 01:30:47;;;;;;;16.27;3.90;;;2.20;88.20;;;;;;5071485;28;20186;-70
2021/04/08 01:33:19;;;;;;;5.45;4.13;;;2.20;87.00;;;;;;5071478;28;20272;-69
2021/04/08 01:35:47;;;;;;;12.80;4.22;;;2.20;86.20;;;;;;5071466;28;20182;-70
2021/04/08 01:38:20;;;;;;;9.57;4.45;;;2.20;86.00;;;;;;5071425;28;20171;-69
2021/04/08 01:40:48;;;;;;;9.50;5.03;;;2.20;86.70;;;;;;5071411;28;20590;-69
2021/04/08 01:43:17;;;;;;;14.07;4.88;;;2.10;86.90;;;;;;5070610;28;20568;-70
2021/04/08 01:45:44;;;;;;;15.68;5.05;;;2.20;87.50;;;;;;5071209;28;20555;-69
2021/04/08 01:48:12;;;;;;;11.02;5.10;;;2.10;87.30;;;;;;5071350;28;20196;-70
2021/04/08 01:50:38;;;;;;;6.75;4.18;;;2.10;88.10;;;;;;5071528;28;20201;-69
2021/04/08 01:53:06;;;;;;;11.75;4.95;;;2.10;87.70;;;;;;5070797;28;20186;-70
2021/04/08 01:55:35;;;;;;;14.63;4.35;;;2.10;87.20;;;;;;5071829;28;20178;-70
2021/04/08 01:58:03;;;;;;;12.15;4.60;;;2.10;87.70;;;;;;5063495;28;20167;-70
2021/04/08 02:00:28;;;;;;;19.33;4.60;;;2.10;87.50;;;;;;5051943;28;20183;-69
2021/04/08 02:02:56;;;;;;;8.67;3.73;;;2.10;87.40;;;;;;5070423;28;20568;-69
2021/04/08 02:05:25;;;;;;;8.35;4.18;;;2.10;87.50;;;;;;5055157;28;20409;-70
2021/04/08 02:07:53;;;;;;;7.72;4.05;;;2.00;88.00;;;;;;5055056;28;20171;-70
2021/04/08 02:10:19;;;;;;;7.45;3.75;;;2.00;88.30;;;;;;5068090;28;20185;-69
2021/04/08 02:12:48;;;;;;;16.02;4.20;;;2.00;87.70;;;;;;5074386;28;20612;-69
2021/04/08 02:15:16;;;;;;;8.80;3.20;;;2.00;87.40;;;;;;5074798;28;20179;-69
2021/04/08 02:17:45;;;;;;;13.02;3.22;;;2.00;88.20;;;;;;5074648;28;20261;-69
2021/04/08 02:20:19;;;;;;;15.60;4.10;;;2.00;86.70;;;;;;5074683;28;20170;-69
2021/04/08 02:22:51;;;;;;;10.52;3.00;;;2.10;86.70;;;;;;5074046;28;20214;-69
2021/04/08 02:25:18;;;;;;;8.38;3.63;;;2.10;86.70;;;;;;5074473;28;20219;-69
2021/04/08 02:27:45;;;;;;;18.45;4.28;;;2.10;86.60;;;;;;5074775;28;20170;-69
2021/04/08 02:30:17;;;;;;;7.88;2.88;;;2.10;86.10;;;;;;5065115;28;20610;-69
2021/04/08 02:32:43;;;;;;;16.02;3.72;;;2.10;85.60;;;;;;5067695;28;20232;-70
2021/04/08 02:35:12;;;;;;;14.83;4.13;;;2.10;85.80;;;;;;5060968;28;20179;-71
2021/04/08 02:37:38;;;;;;;12.23;3.40;;;2.10;85.50;;;;;;5054569;28;20405;-69
2021/04/08 02:40:09;;;;;;;12.07;3.28;;;2.10;85.70;;;;;;5054496;28;20307;-69
2021/04/08 02:42:34;;;;;;;10.10;3.58;;;2.10;86.00;;;;;;5066379;28;20210;-69
2021/04/08 02:45:01;;;;;;;7.23;3.03;;;2.10;86.30;;;;;;5074056;28;20178;-69
2021/04/08 02:47:26;;;;;;;15.65;3.10;;;2.00;85.60;;;;;;5074416;28;20221;-68
2021/04/08 02:49:52;;;;;;;6.87;3.03;;;2.10;84.70;;;;;;5073966;28;20651;-68
2021/04/08 02:52:22;;;;;;;10.52;2.90;;;2.10;84.70;;;;;;5073636;28;20283;-69
2021/04/08 02:55:07;;;;;;;7.03;2.90;;;2.10;84.50;;;;;;5073637;28;20183;-70
2021/04/08 02:57:52;;;;;;;5.97;2.42;;;2.30;83.20;;;;;;5070186;28;20171;-70
2021/04/08 03:00:18;;;;;;;19.45;2.97;;;2.30;81.60;;;;;;5053939;28;20198;-70
2021/04/08 03:02:46;;;;;;;7.90;2.63;;;2.30;82.00;;;;;;5066592;28;20305;-70
2021/04/08 03:05:13;;;;;;;11.15;2.60;;;2.30;81.80;;;;;;5074073;28;20178;-69
2021/04/08 03:07:52;;;;;;;7.40;1.90;;;2.40;80.10;;;;;;5074356;28;20162;-69
2021/04/08 03:10:17;;;;;;;6.10;2.83;;;2.50;79.00;;;;;;5060908;28;20765;-70
2021/04/08 03:12:47;;;;;;;8.87;2.27;;;2.50;79.00;;;;;;5065730;28;20206;-69
2021/04/08 03:15:15;;;;;;;10.02;2.53;;;2.30;80.40;;;;;;5073828;28;20257;-70
2021/04/08 03:17:43;;;;;;;8.20;2.17;;;2.40;79.50;;;;;;5073717;28;20199;-69
2021/04/08 03:20:12;;;;;;;10.38;2.65;;;2.40;79.40;;;;;;5073562;28;20175;-69
2021/04/08 03:22:39;;;;;;;9.25;2.45;;;2.50;77.50;;;;;;5073289;28;20297;-69
2021/04/08 03:25:08;;;;;;;1.85;1.75;;;2.60;76.00;;;;;;5073532;28;20206;-69
2021/04/08 03:27:36;;;;;;;9.02;2.20;;;2.70;73.10;;;;;;5073685;28;20178;-70
2021/04/08 03:30:04;;;;;;;5.20;1.70;;;2.70;72.00;;;;;;5065089;28;20191;-69
2021/04/08 03:32:30;;;;;;;4.53;1.83;;;2.70;72.20;;;;;;5063385;28;20313;-69
2021/04/08 03:34:56;;;;;;;10.70;1.90;;;2.70;72.10;;;;;;5073069;28;20257;-70
2021/04/08 03:37:21;;;;;;;3.35;1.70;;;2.70;71.30;;;;;;5073102;28;20170;-70
2021/04/08 03:39:47;;;;;;;11.70;2.73;;;2.60;72.40;;;;;;5073284;28;20550;-70
2021/04/08 03:42:14;;;;;;;10.10;2.00;;;2.70;71.90;;;;;;5072823;28;20205;-70
2021/04/08 03:44:39;;;;;;;9.80;2.90;;;2.70;72.20;;;;;;5072606;28;20218;-70
2021/04/08 03:47:07;;;;;;;14.50;2.40;;;2.70;72.40;;;;;;5073323;28;20678;-70
2021/04/08 03:49:33;;;;;;;5.72;2.08;;;2.70;70.40;;;;;;5073031;28;20158;-69
2021/04/08 03:52:01;;;;;;;3.70;2.15;;;2.70;69.90;;;;;;5072530;28;20297;-70
2021/04/08 03:54:27;;;;;;;6.05;1.65;;;2.70;70.70;;;;;;5072743;28;20719;-70
2021/04/08 03:56:54;;;;;;;3.25;1.45;;;2.70;70.00;;;;;;5073171;28;20545;-70
2021/04/08 03:59:21;;;;;;;7.07;2.42;;;2.70;69.10;;;;;;5054190;28;20701;-70
2021/04/08 04:01:47;;;;;;;9.57;2.10;;;2.70;70.00;;;;;;5038419;28;20247;-70
2021/04/08 04:04:14;;;;;;;9.52;2.67;;;2.60;71.10;;;;;;5072425;28;20257;-70
2021/04/08 04:06:42;;;;;;;7.35;2.17;;;2.50;72.30;;;;;;5072519;28;20179;-69
2021/04/08 04:09:13;;;;;;;7.97;2.10;;;2.40;73.70;;;;;;5072421;28;20172;-68
2021/04/08 04:11:40;;;;;;;10.70;2.63;;;2.40;75.90;;;;;;5072293;28;20209;-69
2021/04/08 04:14:08;;;;;;;8.40;2.08;;;2.50;74.60;;;;;;5072489;28;20188;-69
2021/04/08 04:16:38;;;;;;;9.80;3.47;;;2.50;74.10;;;;;;5072510;28;20183;-69
2021/04/08 04:19:04;;;;;;;7.88;2.70;;;2.60;73.50;;;;;;5072475;28;20171;-69
2021/04/08 04:21:31;;;;;;;18.67;2.90;;;2.70;71.90;;;;;;5072262;28;20672;-69
2021/04/08 04:23:56;;;;;;;6.60;3.95;;;2.90;69.00;;;;;;5071848;28;20167;-69
2021/04/08 04:26:22;;;;;;;8.17;3.40;;;3.00;68.00;;;;;;5072420;28;20532;-69
2021/04/08 04:28:47;;;;;;;8.67;3.47;;;3.00;68.30;;;;;;5054487;28;20166;-69
2021/04/08 04:31:13;;;;;;;9.47;4.23;;;3.10;66.70;;;;;;5054162;28;20353;-69
2021/04/08 04:33:38;;;;;;;11.17;4.30;;;3.10;65.90;;;;;;5070500;28;20178;-69
2021/04/08 04:36:05;;;;;;;12.83;4.80;;;3.10;65.60;;;;;;5072376;28;20223;-70
2021/04/08 04:38:30;;;;;;;14.90;4.32;;;3.10;67.10;;;;;;5072186;28;20169;-69
2021/04/08 04:40:56;;;;;;;8.93;4.80;;;3.20;65.20;;;;;;5072063;28;20198;-70
2021/04/08 04:43:22;;;;;;;13.17;4.60;;;3.30;63.90;;;;;;5071420;28;20213;-70
2021/04/08 04:45:47;;;;;;;13.27;5.53;;;3.30;64.50;;;;;;5071963;28;20651;-69
2021/04/08 04:48:13;;;;;;;10.00;4.40;;;3.30;65.10;;;;;;5071863;28;20206;-70
2021/04/08 04:50:39;;;;;;;9.70;5.20;;;3.40;65.00;;;;;;5071939;28;20170;-71
2021/04/08 04:53:04;;;;;;;13.80;5.83;;;3.30;65.10;;;;;;5071241;28;20513;-71
2021/04/08 04:55:30;;;;;;;15.23;5.50;;;3.30;65.40;;;;;;5071850;28;20276;-69
2021/04/08 04:57:56;;;;;;;19.20;6.70;;;3.30;64.90;;;;;;5072355;28;20178;-69
2021/04/08 05:00:22;;;;;;;11.60;5.80;;;3.40;62.80;;;;;;5072218;28;20174;-70
2021/04/08 05:02:49;;;;;;;15.07;6.82;;;3.50;62.00;;;;;;5070786;28;20206;-70
2021/04/08 05:05:15;;;;;;;7.90;5.47;;;3.40;63.40;;;;;;5071529;28;20193;-70
2021/04/08 05:07:41;;;;;;;9.30;5.25;;;3.40;62.70;;;;;;5071685;28;20171;-70
2021/04/08 05:10:07;;;;;;;15.67;6.70;;;3.40;63.90;;;;;;5059976;28;20266;-70
2021/04/08 05:12:32;;;;;;;16.50;7.03;;;3.50;61.70;;;;;;5059862;28;20194;-71
2021/04/08 05:14:58;;;;;;;16.57;6.93;;;3.60;59.60;;;;;;5071675;28;20223;-70
2021/04/08 05:17:24;;;;;;;14.43;7.27;;;3.60;59.80;;;;;;5072166;28;20217;-71
2021/04/08 05:19:51;;;;;;;14.50;7.13;;;3.70;60.40;;;;;;5073224;28;20174;-71
2021/04/08 05:22:16;;;;;;;17.40;8.15;;;3.60;60.40;;;;;;5072909;28;20241;-70
2021/04/08 05:24:42;;;;;;;16.60;7.70;;;3.70;58.00;;;;;;5074081;28;20183;-70
2021/04/08 05:27:08;;;;;;;18.57;7.90;;;3.70;57.20;;;;;;5075200;28;20170;-71
2021/04/08 05:29:34;;;;;;;15.65;7.90;;;3.70;56.90;;;;;;5071167;28;20413;-70
2021/04/08 05:31:59;;;;;;;14.13;7.47;;;3.80;56.60;;;;;;5072519;28;20717;-71
2021/04/08 05:34:25;;;;;;;15.40;9.10;;;3.80;56.40;;;;;;5065782;28;20183;-70
2021/04/08 05:36:51;;;;;;;14.83;8.57;;;3.70;58.90;;;;;;5053927;28;20571;-70
2021/04/08 05:39:16;;;;;;;18.60;8.57;;;3.80;58.20;;;;;;5056220;28;20171;-71
2021/04/08 05:41:42;;;;;;;13.20;7.30;;;3.80;57.40;;;;;;5070721;28;20622;-71
2021/04/08 05:44:08;;;;;;;21.33;10.05;;;3.90;56.30;;;;;;5075427;28;20658;-70
2021/04/08 05:46:34;;;;;;;31.80;10.50;;;3.90;56.30;;;;;;5075821;28;20174;-70
2021/04/08 05:48:59;;;;;;;16.73;9.13;;;4.00;54.70;;;;;;5075486;28;20243;-70
2021/04/08 05:51:25;;;;;;;23.37;10.50;;;4.00;55.40;;;;;;5075059;28;20198;-70
2021/04/08 05:53:51;;;;;;;17.27;9.57;;;4.00;55.20;;;;;;5075119;28;20174;-70
2021/04/08 05:56:16;;;;;;;22.87;11.13;;;4.00;55.90;;;;;;5075182;28;20413;-70
2021/04/08 05:58:42;;;;;;;11.70;9.23;;;4.10;53.30;;;;;;5074858;28;20186;-70
2021/04/08 06:01:07;;;;;;;19.37;9.37;;;4.10;52.00;;;;;;5074713;28;20210;-70
2021/04/08 06:03:33;;;;;;;20.53;10.13;;;4.10;51.90;;;;;;5074884;28;20181;-70
2021/04/08 06:05:59;;;;;;;18.80;9.00;;;4.20;51.00;;;;;;5075313;28;20796;-70
2021/04/08 06:08:24;;;;;;;17.63;10.33;;;4.30;49.60;;;;;;5074759;28;20216;-70
2021/04/08 06:10:50;;;;;;;23.53;10.60;;;4.30;49.50;;;;;;5074459;28;20281;-70
2021/04/08 06:13:15;;;;;;;26.50;10.87;;;4.40;48.80;;;;;;5074385;28;20171;-72
2021/04/08 06:15:41;;;;;;;19.27;10.30;;;4.50;48.50;;;;;;5074754;28;20174;-72
2021/04/08 06:18:07;;;;;;;21.43;9.40;;;4.50;48.80;;;;;;5074438;28;20643;-71
2021/04/08 06:20:33;;;;;;;14.30;8.63;;;4.60;48.20;;;;;;5074607;28;20185;-70
2021/04/08 06:22:59;;;;;;;18.97;9.30;;;4.60;46.70;;;;;;5057248;28;20273;-71
2021/04/08 06:25:24;;;;;;;16.83;9.80;;;4.80;43.50;;;;;;5074840;28;20461;-70
2021/04/08 06:27:51;;;;;;;19.10;9.87;;;4.70;44.00;;;;;;5074128;28;20697;-69
2021/04/08 06:30:18;;;;;;;17.83;9.43;;;4.80;44.10;;;;;;5074152;28;20651;-70
2021/04/08 06:32:43;;;;;;;15.88;8.98;;;4.80;44.00;;;;;;5073734;28;20352;-70
2021/04/08 06:35:10;;;;;;;20.20;10.40;;;5.00;42.60;;;;;;5060794;28;20270;-70
2021/04/08 06:37:36;;;;;;;19.52;8.43;;;5.10;42.10;;;;;;5054413;28;20179;-70
2021/04/08 06:40:02;;;;;;;13.67;7.83;;;5.20;41.40;;;;;;5054698;28;20543;-70
2021/04/08 06:42:28;;;;;;;13.00;8.13;;;5.30;39.60;;;;;;5073932;28;20213;-71
2021/04/08 06:44:56;;;;;;;14.25;7.60;;;5.40;39.30;;;;;;5056251;28;20344;-70
2021/04/08 06:47:33;;;;;;;18.33;8.07;;;5.50;38.30;;;;;;5073026;28;20502;-71
2021/04/08 06:50:04;;;;;;;10.63;7.88;;;5.60;38.40;;;;;;5074130;28;20255;-71
2021/04/08 06:52:30;;;;;;;20.35;8.90;;;5.60;38.10;;;;;;5073599;28;20747;-70
2021/04/08 06:54:57;;;;;;;17.50;8.23;;;5.60;37.30;;;;;;5075053;28;20182;-72
2021/04/08 06:57:23;;;;;;;17.38;9.23;;;5.70;37.90;;;;;;5071879;28;20187;-70
2021/04/08 06:59:49;;;;;;;19.33;9.68;;;5.80;36.70;;;;;;5054822;28;20206;-69
2021/04/08 07:02:18;;;;;;;35.50;18.03;;;5.80;35.60;;;;;;5070203;28;20670;-71
2021/04/08 07:04:43;;;;;;;167.98;81.32;;;6.00;34.70;;;;;;5073482;28;20170;-71
2021/04/08 07:07:09;;;;;;;17.57;9.37;;;6.20;40.40;;;;;;5072943;28;20174;-70
2021/04/08 07:09:35;;;;;;;15.93;7.90;;;6.40;34.50;;;;;;5067026;28;20189;-70
2021/04/08 07:12:01;;;;;;;20.97;8.17;;;6.60;32.10;;;;;;5070571;28;20655;-70
2021/04/08 07:14:27;;;;;;;23.13;12.68;;;6.60;32.60;;;;;;5073893;28;20528;-70
2021/04/08 07:16:53;;;;;;;22.30;9.63;;;6.70;33.70;;;;;;5064978;28;20183;-70
2021/04/08 07:19:19;;;;;;;15.88;7.50;;;6.90;32.20;;;;;;5070917;28;20414;-71
2021/04/08 07:21:46;;;;;;;29.23;11.73;;;6.90;30.20;;;;;;5073944;28;20245;-70
2021/04/08 07:24:20;;;;;;;22.90;8.47;;;7.00;27.70;;;;;;5070852;28;20713;-70
2021/04/08 07:26:51;;;;;;;12.67;6.60;;;7.10;30.20;;;;;;5072853;28;20420;-70
2021/04/08 07:29:18;;;;;;;16.05;6.38;;;7.20;28.60;;;;;;5072883;28;20420;-70
2021/04/08 07:31:43;;;;;;;15.77;7.20;;;7.20;25.90;;;;;;5073126;28;20218;-69
2021/04/08 07:34:10;;;;;;;12.83;6.93;;;7.20;27.60;;;;;;5072288;28;20511;-70
2021/04/08 07:36:40;;;;;;;14.73;9.40;;;7.10;26.80;;;;;;5073506;28;20444;-70
2021/04/08 07:39:17;;;;;;;13.70;6.93;;;7.20;26.70;;;;;;5073622;28;20190;-70
2021/04/08 07:41:57;;;;;;;13.83;6.77;;;7.30;26.20;;;;;;5073515;28;20505;-71
2021/04/08 07:44:22;;;;;;;11.80;7.63;;;7.40;25.90;;;;;;5072419;28;20424;-70
2021/04/08 07:46:48;;;;;;;13.10;6.50;;;7.50;25.90;;;;;;5072672;28;20427;-69
2021/04/08 07:49:29;;;;;;;20.63;6.20;;;7.50;23.60;;;;;;5072732;28;20635;-70
2021/04/08 07:51:56;;;;;;;12.23;5.47;;;7.40;23.30;;;;;;5072442;28;20221;-69
2021/04/08 07:54:22;;;;;;;15.13;6.40;;;7.30;22.50;;;;;;5072157;28;20548;-70
2021/04/08 07:56:48;;;;;;;10.67;6.67;;;7.30;23.00;;;;;;5054815;28;20186;-70
2021/04/08 07:59:21;;;;;;;10.50;5.77;;;7.30;23.60;;;;;;5057519;28;20965;-70
2021/04/08 08:02:06;;;;;;;13.88;6.47;;;7.50;23.50;;;;;;5072531;28;20539;-70
2021/04/08 08:04:32;;;;;;;20.97;7.97;;;7.70;23.90;;;;;;5072258;28;20182;-71
2021/04/08 08:06:59;;;;;;;17.23;5.67;;;7.80;20.60;;;;;;5072531;28;20407;-71
2021/04/08 08:09:28;;;;;;;14.73;6.53;;;7.90;20.90;;;;;;5072005;28;20925;-70
2021/04/08 08:11:56;;;;;;;12.20;5.83;;;8.00;21.50;;;;;;5072036;28;20791;-70
2021/04/08 08:14:40;;;;;;;14.07;5.30;;;8.00;21.50;;;;;;5071872;28;20431;-71
2021/04/08 08:17:12;;;;;;;12.83;4.90;;;8.10;20.30;;;;;;5072534;28;20495;-70
2021/04/08 08:19:43;;;;;;;14.73;5.20;;;8.10;20.00;;;;;;5073000;28;20499;-71
2021/04/08 08:22:20;;;;;;;11.20;5.30;;;8.20;20.10;;;;;;5071887;28;20509;-71
2021/04/08 08:24:59;;;;;;;11.53;6.10;;;8.20;18.60;;;;;;5072028;28;20428;-70
2021/04/08 08:27:38;;;;;;;12.80;5.60;;;8.20;18.90;;;;;;5072076;28;20590;-71
2021/04/08 08:30:06;;;;;;;14.30;5.70;;;8.10;19.80;;;;;;5072378;28;20430;-70
2021/04/08 08:32:31;;;;;;;11.50;5.27;;;8.20;18.60;;;;;;5072223;28;20448;-70
2021/04/08 08:34:57;;;;;;;10.10;5.90;;;8.20;18.80;;;;;;5067805;28;21354;-69
2021/04/08 08:37:23;;;;;;;14.40;6.13;;;8.20;20.00;;;;;;5071720;28;20181;-69
2021/04/08 08:39:49;;;;;;;17.50;5.20;;;8.10;19.20;;;;;;5071893;28;20261;-69
2021/04/08 08:42:20;;;;;;;18.47;5.57;;;8.10;20.60;;;;;;5053367;28;20460;-69
2021/04/08 08:44:46;;;;;;;7.87;5.20;;;8.20;19.90;;;;;;5071498;28;20420;-70
2021/04/08 08:47:31;;;;;;;10.23;5.47;;;8.40;19.20;;;;;;5071079;28;20859;-69
2021/04/08 08:50:04;;;;;;;9.13;6.17;;;8.50;18.50;;;;;;5071669;28;20431;-69
2021/04/08 08:52:35;;;;;;;11.80;5.13;;;8.80;19.20;;;;;;5071770;28;20941;-69
2021/04/08 08:55:07;;;;;;;10.77;5.70;;;9.20;15.40;;;;;;5071417;28;20443;-70
2021/04/08 08:57:33;;;;;;;6.63;5.20;;;9.40;15.20;;;;;;5068005;28;20496;-71
2021/04/08 08:59:59;;;;;;;13.03;5.60;;;9.50;14.00;;;;;;5068330;28;20512;-70
2021/04/08 09:02:25;;;;;;;18.50;5.60;;;9.30;13.60;;;;;;5072493;28;20216;-71
2021/04/08 09:04:52;;;;;;;11.00;6.40;;;9.40;14.30;;;;;;5066478;28;20421;-72
2021/04/08 09:07:20;;;;;;;10.90;5.03;;;9.30;13.00;;;;;;5066165;28;20915;-70
2021/04/08 09:09:55;;;;;;;14.37;5.23;;;9.20;12.80;;;;;;5070674;28;20939;-70
2021/04/08 09:12:22;;;;;;;9.93;4.77;;;9.10;12.70;;;;;;5072433;28;20520;-71
2021/04/08 09:14:49;;;;;;;12.13;5.37;;;9.00;13.10;;;;;;5070870;28;20453;-70
2021/04/08 09:17:43;;;;;;;10.10;4.90;;;9.00;13.90;;;;;;5053538;28;20425;-71
2021/04/08 09:20:11;;;;;;;13.17;5.33;;;8.90;13.20;;;;;;5059063;28;20433;-70
2021/04/08 09:23:04;;;;;;;10.20;4.83;;;8.70;12.50;;;;;;5071768;28;20463;-69
2021/04/08 09:25:37;;;;;;;6.17;4.20;;;8.40;13.20;;;;;;5071238;28;20423;-70
2021/04/08 09:28:11;;;;;;;5.03;4.20;;;8.40;14.30;;;;;;5071454;28;20444;-70
2021/04/08 09:33:48;;;;;;;8.30;4.43;;;8.40;13.60;;;;;;5070728;28;20442;-70
2021/04/08 09:36:20;;;;;;;3.50;2.50;;;8.60;9.50;;;;;;5061713;28;20956;-69
2021/04/08 09:39:09;;;;;;;7.83;4.73;;;8.70;10.00;;;;;;5051588;28;20492;-70
2021/04/08 09:41:55;;;;;;;7.57;4.90;;;8.90;10.60;;;;;;5050676;28;20461;-69
2021/04/08 09:44:22;;;;;;;8.53;5.43;;;9.20;10.90;;;;;;5071284;28;20518;-69
2021/04/08 09:47:00;;;;;;;9.30;4.73;;;9.60;8.90;;;;;;5071225;28;20978;-69
2021/04/08 09:49:41;;;;;;;12.40;5.57;;;9.70;7.50;;;;;;5071274;28;20758;-70
2021/04/08 09:52:08;;;;;;;6.43;4.43;;;10.00;9.40;;;;;;5070609;28;20437;-69
2021/04/08 09:54:55;;;;;;;15.30;4.43;;;10.20;10.10;;;;;;5071014;28;20628;-70
2021/04/08 09:57:33;;;;;;;6.40;3.87;;;10.10;7.30;;;;;;5069175;28;20407;-70
2021/04/08 10:00:00;;;;;;;6.93;3.73;;;10.00;5.80;;;;;;5066496;28;20424;-71
2021/04/08 10:02:27;;;;;;;9.33;5.27;;;10.00;4.90;;;;;;5071006;28;20843;-70
2021/04/08 10:05:12;;;;;;;6.03;4.00;;;10.00;7.60;;;;;;5071177;28;20436;-70
2021/04/08 10:07:52;;;;;;;10.07;4.17;;;9.90;6.90;;;;;;5070987;28;20536;-69
2021/04/08 10:10:20;;;;;;;8.73;4.20;;;9.70;6.20;;;;;;5057417;28;20431;-71
2021/04/08 10:12:45;;;;;;;7.65;4.28;;;9.70;6.10;;;;;;5060542;28;20420;-69
2021/04/08 10:15:15;;;;;;;5.40;3.57;;;9.70;4.60;;;;;;5069972;28;20187;-70
2021/04/08 10:17:41;;;;;;;7.43;4.30;;;9.80;4.00;;;;;;5055044;28;20180;-71
2021/04/08 10:20:08;;;;;;;9.37;3.83;;;10.00;3.90;;;;;;5067296;28;20429;-69
2021/04/08 10:22:45;;;;;;;3.97;3.63;;;10.20;3.20;;;;;;5072543;28;20469;-69
2021/04/08 10:25:12;;;;;;;5.43;3.30;;;10.20;3.00;;;;;;5074510;28;20400;-69
2021/04/08 10:27:38;;;;;;;8.73;4.20;;;10.20;1.80;;;;;;5074180;28;20776;-71
2021/04/08 10:30:15;;;;;;;3.90;3.50;;;10.00;2.00;;;;;;5074578;28;20507;-69
2021/04/08 10:32:43;;;;;;;4.17;3.60;;;10.10;2.50;;;;;;5073865;28;20520;-70
2021/04/08 10:35:25;;;;;;;6.73;3.17;;;10.30;2.40;;;;;;5074657;28;20933;-69
2021/04/08 10:38:17;;;;;;;4.77;4.13;;;10.50;2.30;;;;;;5075511;28;20501;-70
2021/04/08 10:40:52;;;;;;;7.40;4.30;;;10.50;2.80;;;;;;5069468;28;20580;-70
2021/04/08 10:43:18;;;;;;;7.40;4.40;;;10.60;1.80;;;;;;5074937;28;20512;-69
2021/04/08 10:45:57;;;;;;;4.97;3.70;;;10.40;2.60;;;;;;5073984;28;20463;-70
2021/04/08 10:48:25;;;;;;;4.83;4.00;;;10.40;3.10;;;;;;5074173;28;20422;-70
2021/04/08 10:50:52;;;;;;;8.67;5.13;;;10.60;2.60;;;;;;5073724;28;20465;-72
2021/04/08 10:53:19;;;;;;;10.27;4.87;;;10.70;3.40;;;;;;5065262;28;20432;-69
2021/04/08 10:55:46;;;;;;;10.73;4.87;;;10.80;2.70;;;;;;5073603;28;20474;-70
2021/04/08 10:58:26;;;;;;;7.77;4.50;;;11.00;2.90;;;;;;5055670;28;20439;-69
2021/04/08 11:00:56;;;;;;;5.50;4.10;;;11.00;2.60;;;;;;5074281;28;20956;-70
2021/04/08 11:03:22;;;;;;;10.10;4.67;;;11.10;1.60;;;;;;5054781;28;20460;-70
2021/04/08 11:05:48;;;;;;;12.03;4.87;;;11.00;1.10;;;;;;5073579;28;20408;-69
2021/04/08 11:08:14;;;;;;;8.90;4.10;;;10.90;1.10;;;;;;5072988;28;20431;-69
2021/04/08 11:10:40;;;;;;;5.93;4.20;;;10.80;1.40;;;;;;5056922;28;20610;-69
2021/04/08 11:13:06;;;;;;;5.50;4.20;;;10.70;2.30;;;;;;5068015;28;20322;-70
2021/04/08 11:15:34;;;;;;;9.73;5.83;;;10.90;1.60;;;;;;5073603;28;20452;-69
2021/04/08 11:18:13;;;;;;;4.90;3.73;;;10.80;1.20;;;;;;5072796;28;20419;-69
2021/04/08 11:20:40;;;;;;;8.10;4.10;;;10.80;2.20;;;;;;5073186;28;20804;-70
2021/04/08 11:23:07;;;;;;;11.10;5.70;;;10.90;2.10;;;;;;5070132;28;20551;-69
2021/04/08 11:25:33;;;;;;;10.23;4.83;;;10.70;1.60;;;;;;5072971;28;20418;-70
2021/04/08 11:28:01;;;;;;;9.53;5.47;;;10.60;2.30;;;;;;5073671;28;20404;-70
2021/04/08 11:30:37;;;;;;;13.60;5.00;;;10.70;2.80;;;;;;5072230;28;20430;-70
2021/04/08 11:33:04;;;;;;;8.60;4.73;;;10.90;2.20;;;;;;5059399;28;20444;-70
2021/04/08 11:35:39;;;;;;;11.73;5.67;;;11.30;2.60;;;;;;5069130;28;20523;-70
2021/04/08 11:38:04;;;;;;;13.67;4.90;;;11.50;1.00;;;;;;5073430;28;20419;-71
2021/04/08 11:40:30;;;;;;;9.50;5.93;;;11.60;1.00;;;;;;5072377;28;20473;-70
2021/04/08 11:42:56;;;;;;;6.53;5.17;;;11.60;1.20;;;;;;5072612;28;20293;-69
2021/04/08 11:45:30;;;;;;;10.23;4.70;;;11.80;1.00;;;;;;5072726;28;20643;-70
2021/04/08 11:47:59;;;;;;;8.17;5.27;;;12.00;1.00;;;;;;5072677;28;20405;-69
2021/04/08 11:50:33;;;;;;;16.00;5.70;;;12.00;1.00;;;;;;5073384;28;20428;-70
2021/04/08 11:53:29;;;;;;;9.37;5.80;;;11.90;1.00;;;;;;5055254;28;20697;-71
2021/04/08 11:55:55;;;;;;;7.23;4.80;;;12.10;1.00;;;;;;5073030;28;20416;-71
2021/04/08 11:58:26;;;;;;;8.00;5.20;;;12.20;1.00;;;;;;5062111;28;20424;-70
2021/04/08 12:00:53;;;;;;;5.50;5.00;;;12.10;1.00;;;;;;5067207;28;20248;-70
2021/04/08 12:03:25;;;;;;;7.00;5.70;;;12.00;1.00;;;;;;5072084;28;20481;-70
2021/04/08 12:05:51;;;;;;;11.57;5.50;;;11.90;1.00;;;;;;5072848;28;20496;-70
2021/04/08 12:08:39;;;;;;;8.43;5.90;;;11.80;1.70;;;;;;5075668;28;20405;-71
2021/04/08 12:11:05;;;;;;;8.30;5.60;;;11.80;1.00;;;;;;5076267;28;20436;-70
2021/04/08 12:13:30;;;;;;;9.47;6.13;;;11.90;1.00;;;;;;5075932;28;20771;-69
2021/04/08 12:15:56;;;;;;;7.97;6.37;;;11.60;1.00;;;;;;5076348;28;20275;-70
2021/04/08 12:18:29;;;;;;;8.93;6.70;;;11.20;1.00;;;;;;5079757;28;20268;-70
2021/04/08 12:20:56;;;;;;;9.10;6.40;;;11.00;2.40;;;;;;5066288;28;20668;-70
2021/04/08 12:23:32;;;;;;;8.87;6.17;;;10.80;2.20;;;;;;5071887;28;20492;-69
2021/04/08 12:25:57;;;;;;;12.13;6.47;;;10.70;3.50;;;;;;5072331;28;20408;-69
2021/04/08 12:28:25;;;;;;;24.63;6.07;;;10.70;2.20;;;;;;5071955;28;20427;-70
2021/04/08 12:31:02;;;;;;;14.13;6.60;;;10.60;2.50;;;;;;5057029;28;20203;-70
2021/04/08 12:33:35;;;;;;;19.20;6.63;;;11.10;3.70;;;;;;5051983;28;20870;-70
2021/04/08 12:36:04;;;;;;;9.00;7.17;;;11.50;2.70;;;;;;5052098;28;20465;-70
2021/04/08 12:38:31;;;;;;;9.40;6.60;;;11.60;1.30;;;;;;5052235;28;20501;-69
2021/04/08 12:40:58;;;;;;;8.63;6.90;;;11.60;1.70;;;;;;5052196;28;20448;-70
2021/04/08 12:43:25;;;;;;;12.10;6.70;;;11.80;1.30;;;;;;5051897;28;20465;-69
2021/04/08 12:45:51;;;;;;;8.17;6.83;;;12.20;1.00;;;;;;5051987;28;20459;-70
2021/04/08 12:48:17;;;;;;;10.30;7.00;;;12.10;1.00;;;;;;5052206;28;20405;-70
2021/04/08 12:50:46;;;;;;;15.97;7.40;;;11.90;1.00;;;;;;5051926;28;20405;-70
2021/04/08 12:53:13;;;;;;;10.50;7.07;;;12.00;1.00;;;;;;5051792;28;20412;-70
2021/04/08 12:55:40;;;;;;;10.43;7.00;;;12.00;1.00;;;;;;5051903;28;20463;-70
2021/04/08 12:58:06;;;;;;;8.23;6.60;;;12.10;1.30;;;;;;5059587;28;20428;-70
2021/04/08 13:00:33;;;;;;;7.50;6.70;;;12.10;1.00;;;;;;5071748;28;20400;-69
2021/04/08 13:02:59;;;;;;;11.60;7.83;;;12.30;1.00;;;;;;5071366;28;20488;-70